Terminal Aerodrome Forecast
Issued by NWS Paducah, KY

Home | Current Version | Previous Version | Text Only | Print | Product List | Glossary Off
Versions: 1 2 3 4 5 6 7 8 9 10 11 12 13 14 15 16 17 18 19 20

000
FTUS43 KPAH 251120
TAFPAH
TAF
KPAH 251120Z 2512/2612 18007KT P6SM -SHRA SCT015 OVC050
      TEMPO 2512/2513 5SM SHRA BR BKN015
     FM251400 18010KT P6SM VCSH SCT015 BKN050
     FM252100 18008KT P6SM OVC050
     FM260600 17007KT 6SM -SHRA BR OVC020=

USA.gov is the U.S. government's official web portal to all federal, state and local government web resources and services.